sensor_id;sensor_type;location;lat;lon;timestamp;temperature;humidity
23411;DHT22;11878;51.774;7.220;2023-02-15T00:01:21;1.50;99.90
23411;DHT22;11878;51.774;7.220;2023-02-15T00:04:24;2.10;99.90
23411;DHT22;11878;51.774;7.220;2023-02-15T00:07:46;2.00;99.90
23411;DHT22;11878;51.774;7.220;2023-02-15T00:10:48;2.00;99.90
23411;DHT22;11878;51.774;7.220;2023-02-15T00:13:50;2.00;99.90
23411;DHT22;11878;51.774;7.220;2023-02-15T00:16:52;2.00;99.90
23411;DHT22;11878;51.774;7.220;2023-02-15T00:19:55;2.00;99.90
23411;DHT22;11878;51.774;7.220;2023-02-15T00:22:58;1.90;99.90
23411;DHT22;11878;51.774;7.220;2023-02-15T00:26:10;1.80;99.90
23411;DHT22;11878;51.774;7.220;2023-02-15T00:29:15;1.70;99.90
23411;DHT22;11878;51.774;7.220;2023-02-15T00:32:18;1.80;99.90
23411;DHT22;11878;51.774;7.220;2023-02-15T00:35:21;1.90;99.90
23411;DHT22;11878;51.774;7.220;2023-02-15T00:38:23;1.80;99.90
23411;DHT22;11878;51.774;7.220;2023-02-15T00:41:24;1.70;99.90
23411;DHT22;11878;51.774;7.220;2023-02-15T00:44:26;1.80;99.90
23411;DHT22;11878;51.774;7.220;2023-02-15T00:47:30;1.70;99.90
23411;DHT22;11878;51.774;7.220;2023-02-15T00:50:32;1.70;99.90
23411;DHT22;11878;51.774;7.220;2023-02-15T00:53:34;1.70;99.90
23411;DHT22;11878;51.774;7.220;2023-02-15T00:56:35;1.60;99.90
23411;DHT22;11878;51.774;7.220;2023-02-15T00:59:38;1.80;99.90
23411;DHT22;11878;51.774;7.220;2023-02-15T01:02:39;1.90;99.90
23411;DHT22;11878;51.774;7.220;2023-02-15T01:05:41;1.80;99.90
23411;DHT22;11878;51.774;7.220;2023-02-15T01:08:47;1.70;99.90
23411;DHT22;11878;51.774;7.220;2023-02-15T01:11:48;1.70;99.90
23411;DHT22;11878;51.774;7.220;2023-02-15T01:14:50;1.50;99.90
23411;DHT22;11878;51.774;7.220;2023-02-15T01:17:53;1.60;99.90
23411;DHT22;11878;51.774;7.220;2023-02-15T01:20:55;1.70;99.90
23411;DHT22;11878;51.774;7.220;2023-02-15T01:23:57;1.60;99.90
23411;DHT22;11878;51.774;7.220;2023-02-15T01:27:00;1.50;99.90
23411;DHT22;11878;51.774;7.220;2023-02-15T01:30:02;1.50;99.90
23411;DHT22;11878;51.774;7.220;2023-02-15T01:33:06;1.60;99.90
23411;DHT22;11878;51.774;7.220;2023-02-15T01:43:10;1.50;99.90
23411;DHT22;11878;51.774;7.220;2023-02-15T01:46:14;1.50;99.90
23411;DHT22;11878;51.774;7.220;2023-02-15T01:56:15;1.40;99.90
23411;DHT22;11878;51.774;7.220;2023-02-15T01:59:23;1.30;99.90
23411;DHT22;11878;51.774;7.220;2023-02-15T02:02:26;1.50;99.90
23411;DHT22;11878;51.774;7.220;2023-02-15T02:05:29;1.50;99.90
23411;DHT22;11878;51.774;7.220;2023-02-15T02:08:31;1.20;99.90
23411;DHT22;11878;51.774;7.220;2023-02-15T02:11:34;1.30;99.90
23411;DHT22;11878;51.774;7.220;2023-02-15T02:14:36;1.30;99.90
23411;DHT22;11878;51.774;7.220;2023-02-15T02:21:26;1.20;99.90
23411;DHT22;11878;51.774;7.220;2023-02-15T02:24:58;1.30;99.90
23411;DHT22;11878;51.774;7.220;2023-02-15T02:31:51;1.10;99.90
23411;DHT22;11878;51.774;7.220;2023-02-15T02:35:01;1.10;99.90
23411;DHT22;11878;51.774;7.220;2023-02-15T02:38:26;1.20;99.90
23411;DHT22;11878;51.774;7.220;2023-02-15T02:41:38;1.10;99.90
23411;DHT22;11878;51.774;7.220;2023-02-15T02:44:48;1.10;99.90
23411;DHT22;11878;51.774;7.220;2023-02-15T02:48:09;1.10;99.90
23411;DHT22;11878;51.774;7.220;2023-02-15T02:51:12;1.10;99.90
23411;DHT22;11878;51.774;7.220;2023-02-15T02:54:16;1.00;99.90
23411;DHT22;11878;51.774;7.220;2023-02-15T02:57:18;1.70;99.90
23411;DHT22;11878;51.774;7.220;2023-02-15T03:00:24;0.90;99.90
23411;DHT22;11878;51.774;7.220;2023-02-15T03:03:30;0.90;99.90
23411;DHT22;11878;51.774;7.220;2023-02-15T03:06:44;1.00;99.90
23411;DHT22;11878;51.774;7.220;2023-02-15T03:09:51;0.80;99.90
23411;DHT22;11878;51.774;7.220;2023-02-15T03:12:54;0.80;99.90
23411;DHT22;11878;51.774;7.220;2023-02-15T03:15:57;1.70;99.90
23411;DHT22;11878;51.774;7.220;2023-02-15T03:19:28;0.80;99.90
23411;DHT22;11878;51.774;7.220;2023-02-15T03:26:01;0.70;99.90
23411;DHT22;11878;51.774;7.220;2023-02-15T03:29:28;0.70;99.90
23411;DHT22;11878;51.774;7.220;2023-02-15T03:32:33;0.70;99.90
23411;DHT22;11878;51.774;7.220;2023-02-15T03:35:44;0.60;99.90
23411;DHT22;11878;51.774;7.220;2023-02-15T03:39:04;0.70;99.90
23411;DHT22;11878;51.774;7.220;2023-02-15T03:42:25;0.70;99.90
23411;DHT22;11878;51.774;7.220;2023-02-15T03:45:31;0.70;99.90
23411;DHT22;11878;51.774;7.220;2023-02-15T03:48:40;0.70;99.90
23411;DHT22;11878;51.774;7.220;2023-02-15T03:51:44;0.70;99.90
23411;DHT22;11878;51.774;7.220;2023-02-15T03:54:48;0.80;99.90
23411;DHT22;11878;51.774;7.220;2023-02-15T03:57:51;0.60;99.90
23411;DHT22;11878;51.774;7.220;2023-02-15T04:01:39;0.60;99.90
23411;DHT22;11878;51.774;7.220;2023-02-15T04:04:59;0.60;99.90
23411;DHT22;11878;51.774;7.220;2023-02-15T04:08:02;0.60;99.90
23411;DHT22;11878;51.774;7.220;2023-02-15T04:11:03;0.60;99.90
23411;DHT22;11878;51.774;7.220;2023-02-15T04:14:05;0.60;99.90
23411;DHT22;11878;51.774;7.220;2023-02-15T04:17:27;0.60;99.90
23411;DHT22;11878;51.774;7.220;2023-02-15T04:20:33;0.50;99.90
23411;DHT22;11878;51.774;7.220;2023-02-15T04:23:53;0.60;99.90
23411;DHT22;11878;51.774;7.220;2023-02-15T04:27:14;0.60;99.90
23411;DHT22;11878;51.774;7.220;2023-02-15T04:30:20;0.60;99.90
23411;DHT22;11878;51.774;7.220;2023-02-15T04:33:22;0.50;99.90
23411;DHT22;11878;51.774;7.220;2023-02-15T04:36:24;0.50;99.90
23411;DHT22;11878;51.774;7.220;2023-02-15T04:39:26;0.60;99.90
23411;DHT22;11878;51.774;7.220;2023-02-15T04:42:28;0.30;99.90
23411;DHT22;11878;51.774;7.220;2023-02-15T04:45:30;0.40;99.90
23411;DHT22;11878;51.774;7.220;2023-02-15T04:48:32;0.50;99.90
23411;DHT22;11878;51.774;7.220;2023-02-15T04:51:33;0.50;99.90
23411;DHT22;11878;51.774;7.220;2023-02-15T04:54:35;0.40;99.90
23411;DHT22;11878;51.774;7.220;2023-02-15T04:57:42;0.50;99.90
23411;DHT22;11878;51.774;7.220;2023-02-15T05:00:44;0.50;99.90
23411;DHT22;11878;51.774;7.220;2023-02-15T05:03:46;0.50;99.90
23411;DHT22;11878;51.774;7.220;2023-02-15T05:06:48;0.40;99.90
23411;DHT22;11878;51.774;7.220;2023-02-15T05:09:50;1.00;99.90
23411;DHT22;11878;51.774;7.220;2023-02-15T05:12:51;0.30;99.90
23411;DHT22;11878;51.774;7.220;2023-02-15T05:15:54;0.30;99.90
23411;DHT22;11878;51.774;7.220;2023-02-15T05:22:57;0.20;99.90
23411;DHT22;11878;51.774;7.220;2023-02-15T05:33:13;0.10;99.90
23411;DHT22;11878;51.774;7.220;2023-02-15T05:36:15;0.20;99.90
23411;DHT22;11878;51.774;7.220;2023-02-15T05:39:17;1.30;99.90
23411;DHT22;11878;51.774;7.220;2023-02-15T05:42:19;1.40;99.90
23411;DHT22;11878;51.774;7.220;2023-02-15T05:45:21;0.20;99.90
23411;DHT22;11878;51.774;7.220;2023-02-15T05:48:24;0.10;99.90
23411;DHT22;11878;51.774;7.220;2023-02-15T05:51:26;1.40;99.90
23411;DHT22;11878;51.774;7.220;2023-02-15T05:54:28;0.00;99.90
23411;DHT22;11878;51.774;7.220;2023-02-15T05:57:30;0.10;99.90
23411;DHT22;11878;51.774;7.220;2023-02-15T06:00:33;0.10;99.90
23411;DHT22;11878;51.774;7.220;2023-02-15T06:03:38;0.10;99.90
23411;DHT22;11878;51.774;7.220;2023-02-15T06:06:40;0.00;99.90
23411;DHT22;11878;51.774;7.220;2023-02-15T06:09:41;0.10;99.90
23411;DHT22;11878;51.774;7.220;2023-02-15T06:12:44;0.00;99.90
23411;DHT22;11878;51.774;7.220;2023-02-15T06:15:46;0.00;99.90
23411;DHT22;11878;51.774;7.220;2023-02-15T06:18:51;0.00;99.90
23411;DHT22;11878;51.774;7.220;2023-02-15T06:21:54;-0.10;99.90
23411;DHT22;11878;51.774;7.220;2023-02-15T06:24:56;-0.10;99.90
23411;DHT22;11878;51.774;7.220;2023-02-15T06:27:58;0.00;99.90
23411;DHT22;11878;51.774;7.220;2023-02-15T06:30:59;0.00;99.90
23411;DHT22;11878;51.774;7.220;2023-02-15T06:34:02;-0.10;99.90
23411;DHT22;11878;51.774;7.220;2023-02-15T06:37:04;-0.10;99.90
23411;DHT22;11878;51.774;7.220;2023-02-15T06:40:08;-0.10;99.90
23411;DHT22;11878;51.774;7.220;2023-02-15T06:43:10;-0.20;99.90
23411;DHT22;11878;51.774;7.220;2023-02-15T06:46:11;-0.10;99.90
23411;DHT22;11878;51.774;7.220;2023-02-15T06:49:13;-0.10;99.90
23411;DHT22;11878;51.774;7.220;2023-02-15T06:52:17;1.00;99.90
23411;DHT22;11878;51.774;7.220;2023-02-15T06:55:18;0.00;99.90
23411;DHT22;11878;51.774;7.220;2023-02-15T06:58:20;0.10;99.90
23411;DHT22;11878;51.774;7.220;2023-02-15T07:01:23;0.10;99.90
23411;DHT22;11878;51.774;7.220;2023-02-15T07:04:25;0.00;99.90
23411;DHT22;11878;51.774;7.220;2023-02-15T07:07:27;-0.10;99.90
23411;DHT22;11878;51.774;7.220;2023-02-15T07:10:28;0.00;99.90
23411;DHT22;11878;51.774;7.220;2023-02-15T07:13:30;0.60;99.90
23411;DHT22;11878;51.774;7.220;2023-02-15T07:16:32;0.20;99.90
23411;DHT22;11878;51.774;7.220;2023-02-15T07:19:34;0.30;99.90
23411;DHT22;11878;51.774;7.220;2023-02-15T07:22:36;0.30;99.90
23411;DHT22;11878;51.774;7.220;2023-02-15T07:25:38;0.20;99.90
23411;DHT22;11878;51.774;7.220;2023-02-15T07:28:40;1.20;99.90
23411;DHT22;11878;51.774;7.220;2023-02-15T07:31:42;0.30;99.90
23411;DHT22;11878;51.774;7.220;2023-02-15T07:34:46;0.30;99.90
23411;DHT22;11878;51.774;7.220;2023-02-15T07:37:48;0.10;99.90
23411;DHT22;11878;51.774;7.220;2023-02-15T07:40:50;0.30;99.90
23411;DHT22;11878;51.774;7.220;2023-02-15T07:43:52;0.30;99.90
23411;DHT22;11878;51.774;7.220;2023-02-15T07:46:55;0.30;99.90
23411;DHT22;11878;51.774;7.220;2023-02-15T07:49:56;0.80;99.90
23411;DHT22;11878;51.774;7.220;2023-02-15T07:53:02;0.50;99.90
23411;DHT22;11878;51.774;7.220;2023-02-15T07:56:07;0.60;99.90
23411;DHT22;11878;51.774;7.220;2023-02-15T07:59:10;0.70;99.90
23411;DHT22;11878;51.774;7.220;2023-02-15T08:02:12;0.60;99.90
23411;DHT22;11878;51.774;7.220;2023-02-15T08:05:14;0.80;99.90
23411;DHT22;11878;51.774;7.220;2023-02-15T08:08:18;0.90;99.90
23411;DHT22;11878;51.774;7.220;2023-02-15T08:11:35;0.90;99.90
23411;DHT22;11878;51.774;7.220;2023-02-15T08:14:37;1.00;99.90
23411;DHT22;11878;51.774;7.220;2023-02-15T08:17:38;1.10;99.90
23411;DHT22;11878;51.774;7.220;2023-02-15T08:20:41;1.30;99.90
23411;DHT22;11878;51.774;7.220;2023-02-15T08:23:43;1.40;99.90
23411;DHT22;11878;51.774;7.220;2023-02-15T08:26:46;1.50;99.90
23411;DHT22;11878;51.774;7.220;2023-02-15T08:29:49;1.60;99.90
23411;DHT22;11878;51.774;7.220;2023-02-15T08:32:51;1.60;99.90
23411;DHT22;11878;51.774;7.220;2023-02-15T08:35:52;1.70;99.90
23411;DHT22;11878;51.774;7.220;2023-02-15T08:38:56;1.80;99.90
23411;DHT22;11878;51.774;7.220;2023-02-15T08:41:58;2.00;99.90
23411;DHT22;11878;51.774;7.220;2023-02-15T08:45:00;2.00;99.90
23411;DHT22;11878;51.774;7.220;2023-02-15T08:48:02;2.10;99.90
23411;DHT22;11878;51.774;7.220;2023-02-15T08:51:06;2.20;99.90
23411;DHT22;11878;51.774;7.220;2023-02-15T08:54:11;2.30;99.90
23411;DHT22;11878;51.774;7.220;2023-02-15T08:57:13;2.40;99.90
23411;DHT22;11878;51.774;7.220;2023-02-15T09:00:15;2.50;99.90
23411;DHT22;11878;51.774;7.220;2023-02-15T09:03:17;2.70;99.90
23411;DHT22;11878;51.774;7.220;2023-02-15T09:06:20;2.90;99.90
23411;DHT22;11878;51.774;7.220;2023-02-15T09:09:22;3.00;99.90
23411;DHT22;11878;51.774;7.220;2023-02-15T09:12:24;4.80;99.90
23411;DHT22;11878;51.774;7.220;2023-02-15T09:15:25;3.50;99.90
23411;DHT22;11878;51.774;7.220;2023-02-15T09:18:28;3.80;99.90
23411;DHT22;11878;51.774;7.220;2023-02-15T09:21:31;4.10;99.90
23411;DHT22;11878;51.774;7.220;2023-02-15T09:24:34;4.40;99.90
23411;DHT22;11878;51.774;7.220;2023-02-15T09:27:35;4.60;99.90
23411;DHT22;11878;51.774;7.220;2023-02-15T09:30:38;4.80;99.90
23411;DHT22;11878;51.774;7.220;2023-02-15T09:33:41;5.20;99.90
23411;DHT22;11878;51.774;7.220;2023-02-15T09:36:45;5.40;99.90
23411;DHT22;11878;51.774;7.220;2023-02-15T09:39:47;5.70;99.90
23411;DHT22;11878;51.774;7.220;2023-02-15T09:43:17;6.00;99.90
23411;DHT22;11878;51.774;7.220;2023-02-15T09:53:47;6.70;99.90
23411;DHT22;11878;51.774;7.220;2023-02-15T09:56:58;7.10;99.90
23411;DHT22;11878;51.774;7.220;2023-02-15T10:13:15;8.30;99.90
23411;DHT22;11878;51.774;7.220;2023-02-15T10:16:42;8.40;99.90
23411;DHT22;11878;51.774;7.220;2023-02-15T10:20:00;8.80;99.90
23411;DHT22;11878;51.774;7.220;2023-02-15T10:26:42;9.40;99.90
23411;DHT22;11878;51.774;7.220;2023-02-15T10:33:01;9.90;99.90
23411;DHT22;11878;51.774;7.220;2023-02-15T10:39:40;10.40;99.90
23411;DHT22;11878;51.774;7.220;2023-02-15T10:52:38;10.60;99.90
23411;DHT22;11878;51.774;7.220;2023-02-15T10:56:05;10.70;99.90
23411;DHT22;11878;51.774;7.220;2023-02-15T10:59:32;10.60;99.90
23411;DHT22;11878;51.774;7.220;2023-02-15T11:06:09;10.80;99.90
23411;DHT22;11878;51.774;7.220;2023-02-15T11:09:17;10.80;99.90
23411;DHT22;11878;51.774;7.220;2023-02-15T11:12:24;10.90;99.90
23411;DHT22;11878;51.774;7.220;2023-02-15T11:19:04;11.20;99.90
23411;DHT22;11878;51.774;7.220;2023-02-15T11:22:10;11.40;99.90
23411;DHT22;11878;51.774;7.220;2023-02-15T11:25:19;11.50;99.90
23411;DHT22;11878;51.774;7.220;2023-02-15T11:28:52;11.60;99.90
23411;DHT22;11878;51.774;7.220;2023-02-15T11:32:12;11.60;99.90
23411;DHT22;11878;51.774;7.220;2023-02-15T11:35:47;11.70;99.90
23411;DHT22;11878;51.774;7.220;2023-02-15T11:39:00;11.70;99.90
23411;DHT22;11878;51.774;7.220;2023-02-15T11:42:15;11.80;99.90
23411;DHT22;11878;51.774;7.220;2023-02-15T11:45:28;12.10;99.90
23411;DHT22;11878;51.774;7.220;2023-02-15T11:48:32;12.50;99.90
23411;DHT22;11878;51.774;7.220;2023-02-15T11:51:35;12.90;99.90
23411;DHT22;11878;51.774;7.220;2023-02-15T11:54:43;13.20;99.90
23411;DHT22;11878;51.774;7.220;2023-02-15T12:01:43;13.40;99.90
23411;DHT22;11878;51.774;7.220;2023-02-15T12:04:58;14.10;99.90
23411;DHT22;11878;51.774;7.220;2023-02-15T12:08:02;14.60;97.80
23411;DHT22;11878;51.774;7.220;2023-02-15T12:11:12;15.00;96.90
23411;DHT22;11878;51.774;7.220;2023-02-15T12:14:16;15.70;94.10
23411;DHT22;11878;51.774;7.220;2023-02-15T12:17:22;16.00;91.10
23411;DHT22;11878;51.774;7.220;2023-02-15T12:20:29;16.30;90.60
23411;DHT22;11878;51.774;7.220;2023-02-15T12:23:33;16.30;91.10
23411;DHT22;11878;51.774;7.220;2023-02-15T12:26:35;15.90;91.40
23411;DHT22;11878;51.774;7.220;2023-02-15T12:29:47;16.80;89.20
23411;DHT22;11878;51.774;7.220;2023-02-15T12:32:52;16.40;87.90
23411;DHT22;11878;51.774;7.220;2023-02-15T12:36:19;15.80;90.90
23411;DHT22;11878;51.774;7.220;2023-02-15T12:39:26;15.40;88.20
23411;DHT22;11878;51.774;7.220;2023-02-15T12:42:42;15.40;90.00
23411;DHT22;11878;51.774;7.220;2023-02-15T12:45:43;16.40;82.80
23411;DHT22;11878;51.774;7.220;2023-02-15T12:48:45;16.30;84.00
23411;DHT22;11878;51.774;7.220;2023-02-15T12:51:53;17.00;77.20
23411;DHT22;11878;51.774;7.220;2023-02-15T12:55:11;18.10;74.90
23411;DHT22;11878;51.774;7.220;2023-02-15T12:58:22;18.00;68.20
23411;DHT22;11878;51.774;7.220;2023-02-15T13:01:25;18.20;65.40
23411;DHT22;11878;51.774;7.220;2023-02-15T13:04:29;18.80;61.30
23411;DHT22;11878;51.774;7.220;2023-02-15T13:07:31;18.90;62.40
23411;DHT22;11878;51.774;7.220;2023-02-15T13:16:59;16.90;62.00
23411;DHT22;11878;51.774;7.220;2023-02-15T13:20:05;16.70;63.90
23411;DHT22;11878;51.774;7.220;2023-02-15T13:26:30;16.90;61.50
23411;DHT22;11878;51.774;7.220;2023-02-15T13:29:36;17.00;60.00
23411;DHT22;11878;51.774;7.220;2023-02-15T13:32:40;17.40;61.60
23411;DHT22;11878;51.774;7.220;2023-02-15T13:49:17;19.20;53.10
23411;DHT22;11878;51.774;7.220;2023-02-15T13:52:26;19.70;51.80
23411;DHT22;11878;51.774;7.220;2023-02-15T13:55:37;20.10;50.00
23411;DHT22;11878;51.774;7.220;2023-02-15T13:59:16;19.80;49.80
23411;DHT22;11878;51.774;7.220;2023-02-15T14:02:38;18.40;51.30
23411;DHT22;11878;51.774;7.220;2023-02-15T14:22:25;18.20;50.10
23411;DHT22;11878;51.774;7.220;2023-02-15T14:25:41;18.50;51.10
23411;DHT22;11878;51.774;7.220;2023-02-15T14:29:07;18.90;47.80
23411;DHT22;11878;51.774;7.220;2023-02-15T14:32:23;19.00;47.70
23411;DHT22;11878;51.774;7.220;2023-02-15T14:35:28;20.10;45.60
23411;DHT22;11878;51.774;7.220;2023-02-15T14:41:57;19.30;44.00
23411;DHT22;11878;51.774;7.220;2023-02-15T14:48:28;19.20;42.90
23411;DHT22;11878;51.774;7.220;2023-02-15T14:57:58;17.40;46.70
23411;DHT22;11878;51.774;7.220;2023-02-15T15:01:10;16.70;49.20
23411;DHT22;11878;51.774;7.220;2023-02-15T15:04:21;15.80;51.80
23411;DHT22;11878;51.774;7.220;2023-02-15T15:07:35;15.50;53.30
23411;DHT22;11878;51.774;7.220;2023-02-15T15:10:42;15.30;56.90
23411;DHT22;11878;51.774;7.220;2023-02-15T15:14:01;15.20;60.40
23411;DHT22;11878;51.774;7.220;2023-02-15T15:17:06;14.80;61.60
23411;DHT22;11878;51.774;7.220;2023-02-15T15:20:13;15.40;63.80
23411;DHT22;11878;51.774;7.220;2023-02-15T15:26:26;14.50;67.10
23411;DHT22;11878;51.774;7.220;2023-02-15T15:29:39;14.20;72.60
23411;DHT22;11878;51.774;7.220;2023-02-15T15:39:47;13.40;73.60
23411;DHT22;11878;51.774;7.220;2023-02-15T15:50:17;13.10;83.80
23411;DHT22;11878;51.774;7.220;2023-02-15T15:53:23;12.90;83.20
23411;DHT22;11878;51.774;7.220;2023-02-15T15:56:32;12.80;83.00
23411;DHT22;11878;51.774;7.220;2023-02-15T15:59:34;12.80;84.60
23411;DHT22;11878;51.774;7.220;2023-02-15T16:02:50;12.70;88.40
23411;DHT22;11878;51.774;7.220;2023-02-15T16:05:54;12.50;88.70
23411;DHT22;11878;51.774;7.220;2023-02-15T16:08:57;12.40;89.70
23411;DHT22;11878;51.774;7.220;2023-02-15T16:11:59;13.50;90.90
23411;DHT22;11878;51.774;7.220;2023-02-15T16:15:19;12.70;90.70
23411;DHT22;11878;51.774;7.220;2023-02-15T16:18:24;11.70;91.90
23411;DHT22;11878;51.774;7.220;2023-02-15T16:21:32;12.50;93.60
23411;DHT22;11878;51.774;7.220;2023-02-15T16:24:43;12.30;93.40
23411;DHT22;11878;51.774;7.220;2023-02-15T16:27:48;12.40;92.70
23411;DHT22;11878;51.774;7.220;2023-02-15T16:31:20;12.40;94.40
23411;DHT22;11878;51.774;7.220;2023-02-15T16:34:24;11.10;96.30
23411;DHT22;11878;51.774;7.220;2023-02-15T16:37:34;11.00;96.00
23411;DHT22;11878;51.774;7.220;2023-02-15T16:40:52;10.70;96.40
23411;DHT22;11878;51.774;7.220;2023-02-15T16:44:05;10.70;98.10
23411;DHT22;11878;51.774;7.220;2023-02-15T16:47:19;10.60;99.90
23411;DHT22;11878;51.774;7.220;2023-02-15T16:50:31;10.40;99.50
23411;DHT22;11878;51.774;7.220;2023-02-15T16:53:34;10.20;99.90
23411;DHT22;11878;51.774;7.220;2023-02-15T16:56:36;10.00;99.90
23411;DHT22;11878;51.774;7.220;2023-02-15T16:59:41;9.90;99.90
23411;DHT22;11878;51.774;7.220;2023-02-15T17:06:34;9.60;99.90
23411;DHT22;11878;51.774;7.220;2023-02-15T17:09:36;9.40;99.90
23411;DHT22;11878;51.774;7.220;2023-02-15T17:12:53;9.40;99.90
23411;DHT22;11878;51.774;7.220;2023-02-15T17:19:08;9.10;99.90
23411;DHT22;11878;51.774;7.220;2023-02-15T17:22:17;9.00;99.90
23411;DHT22;11878;51.774;7.220;2023-02-15T17:25:28;9.00;99.90
23411;DHT22;11878;51.774;7.220;2023-02-15T17:28:33;9.00;99.90
23411;DHT22;11878;51.774;7.220;2023-02-15T17:31:36;8.80;99.90
23411;DHT22;11878;51.774;7.220;2023-02-15T17:37:47;8.70;99.90
23411;DHT22;11878;51.774;7.220;2023-02-15T17:40:49;8.70;99.90
23411;DHT22;11878;51.774;7.220;2023-02-15T17:43:51;8.70;99.90
23411;DHT22;11878;51.774;7.220;2023-02-15T17:46:53;8.60;99.90
23411;DHT22;11878;51.774;7.220;2023-02-15T17:49:58;8.70;99.90
23411;DHT22;11878;51.774;7.220;2023-02-15T17:53:02;9.30;99.90
23411;DHT22;11878;51.774;7.220;2023-02-15T17:56:05;8.60;99.90
23411;DHT22;11878;51.774;7.220;2023-02-15T17:59:11;8.50;99.90
23411;DHT22;11878;51.774;7.220;2023-02-15T18:02:14;8.40;99.90
23411;DHT22;11878;51.774;7.220;2023-02-15T18:05:35;8.30;99.90
23411;DHT22;11878;51.774;7.220;2023-02-15T18:08:55;8.30;99.90
23411;DHT22;11878;51.774;7.220;2023-02-15T18:12:20;8.10;99.90
23411;DHT22;11878;51.774;7.220;2023-02-15T18:15:22;8.10;99.90
23411;DHT22;11878;51.774;7.220;2023-02-15T18:18:25;9.50;99.90
23411;DHT22;11878;51.774;7.220;2023-02-15T18:21:27;8.10;99.90
23411;DHT22;11878;51.774;7.220;2023-02-15T18:24:29;7.80;99.90
23411;DHT22;11878;51.774;7.220;2023-02-15T18:27:32;7.70;99.90
23411;DHT22;11878;51.774;7.220;2023-02-15T18:30:34;7.80;99.90
23411;DHT22;11878;51.774;7.220;2023-02-15T18:33:42;7.50;99.90
23411;DHT22;11878;51.774;7.220;2023-02-15T18:36:45;7.50;99.90
23411;DHT22;11878;51.774;7.220;2023-02-15T18:39:49;7.50;99.90
23411;DHT22;11878;51.774;7.220;2023-02-15T18:42:54;7.40;99.90
23411;DHT22;11878;51.774;7.220;2023-02-15T18:45:57;7.30;99.90
23411;DHT22;11878;51.774;7.220;2023-02-15T18:48:59;7.80;99.90
23411;DHT22;11878;51.774;7.220;2023-02-15T18:52:01;7.20;99.90
23411;DHT22;11878;51.774;7.220;2023-02-15T18:58:19;7.10;99.90
23411;DHT22;11878;51.774;7.220;2023-02-15T19:01:21;7.00;99.90
23411;DHT22;11878;51.774;7.220;2023-02-15T19:04:23;7.70;99.90
23411;DHT22;11878;51.774;7.220;2023-02-15T19:07:27;6.90;99.90
23411;DHT22;11878;51.774;7.220;2023-02-15T19:10:32;6.90;99.90
23411;DHT22;11878;51.774;7.220;2023-02-15T19:13:34;8.20;99.90
23411;DHT22;11878;51.774;7.220;2023-02-15T19:16:36;6.80;99.90
23411;DHT22;11878;51.774;7.220;2023-02-15T19:19:38;7.00;99.90
23411;DHT22;11878;51.774;7.220;2023-02-15T19:22:40;6.80;99.90
23411;DHT22;11878;51.774;7.220;2023-02-15T19:25:42;6.90;99.90
23411;DHT22;11878;51.774;7.220;2023-02-15T19:28:44;6.50;99.90
23411;DHT22;11878;51.774;7.220;2023-02-15T19:31:46;6.40;99.90
23411;DHT22;11878;51.774;7.220;2023-02-15T19:34:49;6.50;99.90
23411;DHT22;11878;51.774;7.220;2023-02-15T19:37:57;6.50;99.90
23411;DHT22;11878;51.774;7.220;2023-02-15T19:41:07;6.50;99.90
23411;DHT22;11878;51.774;7.220;2023-02-15T19:44:10;6.40;99.90
23411;DHT22;11878;51.774;7.220;2023-02-15T19:47:12;7.80;99.90
23411;DHT22;11878;51.774;7.220;2023-02-15T19:50:16;6.30;99.90
23411;DHT22;11878;51.774;7.220;2023-02-15T19:53:21;6.30;99.90
23411;DHT22;11878;51.774;7.220;2023-02-15T19:56:24;6.30;99.90
23411;DHT22;11878;51.774;7.220;2023-02-15T19:59:29;6.20;99.90
23411;DHT22;11878;51.774;7.220;2023-02-15T20:02:31;6.60;99.90
23411;DHT22;11878;51.774;7.220;2023-02-15T20:05:34;7.60;99.90
23411;DHT22;11878;51.774;7.220;2023-02-15T20:08:38;5.60;99.90
23411;DHT22;11878;51.774;7.220;2023-02-15T20:11:42;6.00;99.90
23411;DHT22;11878;51.774;7.220;2023-02-15T20:14:44;7.60;99.90
23411;DHT22;11878;51.774;7.220;2023-02-15T20:17:46;6.00;99.90
23411;DHT22;11878;51.774;7.220;2023-02-15T20:20:50;5.90;99.90
23411;DHT22;11878;51.774;7.220;2023-02-15T20:23:52;5.90;99.90
23411;DHT22;11878;51.774;7.220;2023-02-15T20:26:54;5.80;99.90
23411;DHT22;11878;51.774;7.220;2023-02-15T20:29:56;6.90;99.90
23411;DHT22;11878;51.774;7.220;2023-02-15T20:32:58;5.70;99.90
23411;DHT22;11878;51.774;7.220;2023-02-15T20:36:00;5.70;99.90
23411;DHT22;11878;51.774;7.220;2023-02-15T20:39:05;5.90;99.90
23411;DHT22;11878;51.774;7.220;2023-02-15T20:42:11;6.00;99.90
23411;DHT22;11878;51.774;7.220;2023-02-15T20:45:19;6.00;99.90
23411;DHT22;11878;51.774;7.220;2023-02-15T20:48:21;5.90;99.90
23411;DHT22;11878;51.774;7.220;2023-02-15T20:51:23;6.70;99.90
23411;DHT22;11878;51.774;7.220;2023-02-15T20:54:27;6.40;99.90
23411;DHT22;11878;51.774;7.220;2023-02-15T20:57:30;5.60;99.90
23411;DHT22;11878;51.774;7.220;2023-02-15T21:00:32;5.60;99.90
23411;DHT22;11878;51.774;7.220;2023-02-15T21:03:34;5.50;99.90
23411;DHT22;11878;51.774;7.220;2023-02-15T21:06:36;5.50;99.90
23411;DHT22;11878;51.774;7.220;2023-02-15T21:09:38;6.40;99.90
23411;DHT22;11878;51.774;7.220;2023-02-15T21:12:39;5.50;99.90
23411;DHT22;11878;51.774;7.220;2023-02-15T21:15:41;5.70;99.90
23411;DHT22;11878;51.774;7.220;2023-02-15T21:18:46;6.00;99.90
23411;DHT22;11878;51.774;7.220;2023-02-15T21:21:53;6.20;99.90
23411;DHT22;11878;51.774;7.220;2023-02-15T21:25:14;7.00;99.90
23411;DHT22;11878;51.774;7.220;2023-02-15T21:28:22;6.40;99.90
23411;DHT22;11878;51.774;7.220;2023-02-15T21:31:24;6.80;99.90
23411;DHT22;11878;51.774;7.220;2023-02-15T21:34:26;6.80;99.90
23411;DHT22;11878;51.774;7.220;2023-02-15T21:37:31;6.70;99.90
23411;DHT22;11878;51.774;7.220;2023-02-15T21:40:35;6.30;99.90
23411;DHT22;11878;51.774;7.220;2023-02-15T21:43:37;6.50;99.90
23411;DHT22;11878;51.774;7.220;2023-02-15T21:46:58;6.70;99.90
23411;DHT22;11878;51.774;7.220;2023-02-15T21:50:21;6.60;99.90
23411;DHT22;11878;51.774;7.220;2023-02-15T21:53:43;6.50;99.90
23411;DHT22;11878;51.774;7.220;2023-02-15T21:56:47;6.40;99.90
23411;DHT22;11878;51.774;7.220;2023-02-15T21:59:51;6.50;99.90
23411;DHT22;11878;51.774;7.220;2023-02-15T22:02:55;6.40;99.90
23411;DHT22;11878;51.774;7.220;2023-02-15T22:05:58;6.30;99.90
23411;DHT22;11878;51.774;7.220;2023-02-15T22:09:00;6.20;99.90
23411;DHT22;11878;51.774;7.220;2023-02-15T22:12:02;6.20;99.90
23411;DHT22;11878;51.774;7.220;2023-02-15T22:15:05;6.20;99.90
23411;DHT22;11878;51.774;7.220;2023-02-15T22:18:19;6.20;99.90
23411;DHT22;11878;51.774;7.220;2023-02-15T22:21:21;6.10;99.90
23411;DHT22;11878;51.774;7.220;2023-02-15T22:24:23;6.10;99.90
23411;DHT22;11878;51.774;7.220;2023-02-15T22:27:26;5.90;99.90
23411;DHT22;11878;51.774;7.220;2023-02-15T22:30:32;5.90;99.90
23411;DHT22;11878;51.774;7.220;2023-02-15T22:33:34;5.90;99.90
23411;DHT22;11878;51.774;7.220;2023-02-15T22:36:36;5.90;99.90
23411;DHT22;11878;51.774;7.220;2023-02-15T22:39:38;5.80;99.90
23411;DHT22;11878;51.774;7.220;2023-02-15T22:42:40;5.80;99.90